sensor_id;sensor_type;location;lat;lon;timestamp;temperature;humidity
41924;DHT22;27613;48.116;11.656;2024-02-23T00:01:04;6.00;99.90
41924;DHT22;27613;48.116;11.656;2024-02-23T00:03:30;6.00;99.90
41924;DHT22;27613;48.116;11.656;2024-02-23T00:05:57;6.00;99.90
41924;DHT22;27613;48.116;11.656;2024-02-23T00:08:22;5.90;99.90
41924;DHT22;27613;48.116;11.656;2024-02-23T00:10:48;5.90;99.90
41924;DHT22;27613;48.116;11.656;2024-02-23T00:13:13;5.90;99.90
41924;DHT22;27613;48.116;11.656;2024-02-23T00:15:39;5.90;99.90
41924;DHT22;27613;48.116;11.656;2024-02-23T00:18:04;5.90;99.90
41924;DHT22;27613;48.116;11.656;2024-02-23T00:20:31;5.90;99.90
41924;DHT22;27613;48.116;11.656;2024-02-23T00:22:56;5.80;99.90
41924;DHT22;27613;48.116;11.656;2024-02-23T00:25:22;5.80;99.90
41924;DHT22;27613;48.116;11.656;2024-02-23T00:27:48;5.80;99.90
41924;DHT22;27613;48.116;11.656;2024-02-23T00:30:14;5.80;99.90
41924;DHT22;27613;48.116;11.656;2024-02-23T00:32:40;5.70;99.90
41924;DHT22;27613;48.116;11.656;2024-02-23T00:35:05;5.70;99.90
41924;DHT22;27613;48.116;11.656;2024-02-23T00:37:31;5.70;99.90
41924;DHT22;27613;48.116;11.656;2024-02-23T00:40:04;5.70;99.90
41924;DHT22;27613;48.116;11.656;2024-02-23T00:42:31;5.70;99.90
41924;DHT22;27613;48.116;11.656;2024-02-23T00:44:56;5.60;99.90
41924;DHT22;27613;48.116;11.656;2024-02-23T00:47:22;5.60;99.90
41924;DHT22;27613;48.116;11.656;2024-02-23T00:49:47;5.60;99.90
41924;DHT22;27613;48.116;11.656;2024-02-23T00:52:13;5.60;99.90
41924;DHT22;27613;48.116;11.656;2024-02-23T00:54:38;5.50;99.90
41924;DHT22;27613;48.116;11.656;2024-02-23T00:57:04;5.60;99.90
41924;DHT22;27613;48.116;11.656;2024-02-23T00:59:29;5.60;99.90
41924;DHT22;27613;48.116;11.656;2024-02-23T01:01:55;5.60;99.90
41924;DHT22;27613;48.116;11.656;2024-02-23T01:04:21;5.50;99.90
41924;DHT22;27613;48.116;11.656;2024-02-23T01:06:46;5.60;99.90
41924;DHT22;27613;48.116;11.656;2024-02-23T01:09:12;5.60;99.90
41924;DHT22;27613;48.116;11.656;2024-02-23T01:11:37;5.50;99.90
41924;DHT22;27613;48.116;11.656;2024-02-23T01:14:03;5.50;99.90
41924;DHT22;27613;48.116;11.656;2024-02-23T01:16:28;5.50;99.90
41924;DHT22;27613;48.116;11.656;2024-02-23T01:18:54;5.50;99.90
41924;DHT22;27613;48.116;11.656;2024-02-23T01:21:19;5.60;99.90
41924;DHT22;27613;48.116;11.656;2024-02-23T01:23:45;5.50;99.90
41924;DHT22;27613;48.116;11.656;2024-02-23T01:26:11;5.50;99.90
41924;DHT22;27613;48.116;11.656;2024-02-23T01:28:36;5.50;99.90
41924;DHT22;27613;48.116;11.656;2024-02-23T01:31:02;5.50;99.90
41924;DHT22;27613;48.116;11.656;2024-02-23T01:33:29;5.50;99.90
41924;DHT22;27613;48.116;11.656;2024-02-23T01:35:54;5.50;99.90
41924;DHT22;27613;48.116;11.656;2024-02-23T01:38:21;5.50;99.90
41924;DHT22;27613;48.116;11.656;2024-02-23T01:40:47;5.50;99.90
41924;DHT22;27613;48.116;11.656;2024-02-23T01:43:13;5.50;99.90
41924;DHT22;27613;48.116;11.656;2024-02-23T01:45:38;5.60;99.90
41924;DHT22;27613;48.116;11.656;2024-02-23T01:48:04;5.60;99.90
41924;DHT22;27613;48.116;11.656;2024-02-23T01:50:30;5.60;99.90
41924;DHT22;27613;48.116;11.656;2024-02-23T01:53:00;5.60;99.90
41924;DHT22;27613;48.116;11.656;2024-02-23T01:55:26;5.60;99.90
41924;DHT22;27613;48.116;11.656;2024-02-23T01:57:52;5.60;99.90
41924;DHT22;27613;48.116;11.656;2024-02-23T02:00:18;5.50;99.90
41924;DHT22;27613;48.116;11.656;2024-02-23T02:02:44;5.60;99.90
41924;DHT22;27613;48.116;11.656;2024-02-23T02:05:11;5.50;99.90
41924;DHT22;27613;48.116;11.656;2024-02-23T02:07:37;5.50;99.90
41924;DHT22;27613;48.116;11.656;2024-02-23T02:10:05;5.40;99.90
41924;DHT22;27613;48.116;11.656;2024-02-23T02:12:31;5.50;99.90
41924;DHT22;27613;48.116;11.656;2024-02-23T02:14:57;5.50;99.90
41924;DHT22;27613;48.116;11.656;2024-02-23T02:17:22;5.40;99.90
41924;DHT22;27613;48.116;11.656;2024-02-23T02:19:48;5.50;99.90
41924;DHT22;27613;48.116;11.656;2024-02-23T02:22:14;5.40;99.90
41924;DHT22;27613;48.116;11.656;2024-02-23T02:24:39;5.40;99.90
41924;DHT22;27613;48.116;11.656;2024-02-23T02:27:07;5.40;99.90
41924;DHT22;27613;48.116;11.656;2024-02-23T02:29:34;5.40;99.90
41924;DHT22;27613;48.116;11.656;2024-02-23T02:32:00;5.40;99.90
41924;DHT22;27613;48.116;11.656;2024-02-23T02:34:25;5.40;99.90
41924;DHT22;27613;48.116;11.656;2024-02-23T02:36:51;5.40;99.90
41924;DHT22;27613;48.116;11.656;2024-02-23T02:39:16;5.40;99.90
41924;DHT22;27613;48.116;11.656;2024-02-23T02:41:42;5.40;99.90
41924;DHT22;27613;48.116;11.656;2024-02-23T02:44:07;5.50;99.90
41924;DHT22;27613;48.116;11.656;2024-02-23T02:46:35;5.50;99.90
41924;DHT22;27613;48.116;11.656;2024-02-23T02:49:01;5.50;99.90
41924;DHT22;27613;48.116;11.656;2024-02-23T02:51:26;5.50;99.90
41924;DHT22;27613;48.116;11.656;2024-02-23T02:53:52;5.50;99.90
41924;DHT22;27613;48.116;11.656;2024-02-23T02:56:17;5.50;99.90
41924;DHT22;27613;48.116;11.656;2024-02-23T02:58:43;5.50;99.90
41924;DHT22;27613;48.116;11.656;2024-02-23T03:01:08;5.40;99.90
41924;DHT22;27613;48.116;11.656;2024-02-23T03:03:34;5.40;99.90
41924;DHT22;27613;48.116;11.656;2024-02-23T03:06:00;5.40;99.90
41924;DHT22;27613;48.116;11.656;2024-02-23T03:08:25;5.30;99.90
41924;DHT22;27613;48.116;11.656;2024-02-23T03:10:52;5.30;99.90
41924;DHT22;27613;48.116;11.656;2024-02-23T03:13:17;5.30;99.90
41924;DHT22;27613;48.116;11.656;2024-02-23T03:15:43;5.20;99.90
41924;DHT22;27613;48.116;11.656;2024-02-23T03:18:08;5.20;99.90
41924;DHT22;27613;48.116;11.656;2024-02-23T03:20:35;5.20;99.90
41924;DHT22;27613;48.116;11.656;2024-02-23T03:23:00;5.20;99.90
41924;DHT22;27613;48.116;11.656;2024-02-23T03:25:29;5.20;99.90
41924;DHT22;27613;48.116;11.656;2024-02-23T03:27:54;5.20;99.90
41924;DHT22;27613;48.116;11.656;2024-02-23T03:30:20;5.10;99.90
41924;DHT22;27613;48.116;11.656;2024-02-23T03:32:45;5.10;99.90
41924;DHT22;27613;48.116;11.656;2024-02-23T03:35:12;5.10;99.90
41924;DHT22;27613;48.116;11.656;2024-02-23T03:37:38;5.10;99.90
41924;DHT22;27613;48.116;11.656;2024-02-23T03:40:05;5.10;99.90
41924;DHT22;27613;48.116;11.656;2024-02-23T03:42:31;5.10;99.90
41924;DHT22;27613;48.116;11.656;2024-02-23T03:44:57;5.10;99.90
41924;DHT22;27613;48.116;11.656;2024-02-23T03:47:22;5.00;99.90
41924;DHT22;27613;48.116;11.656;2024-02-23T03:49:48;5.00;99.90
41924;DHT22;27613;48.116;11.656;2024-02-23T03:52:13;5.00;99.90
41924;DHT22;27613;48.116;11.656;2024-02-23T03:54:39;5.00;99.90
41924;DHT22;27613;48.116;11.656;2024-02-23T03:57:04;5.00;99.90
41924;DHT22;27613;48.116;11.656;2024-02-23T03:59:30;5.00;99.90
41924;DHT22;27613;48.116;11.656;2024-02-23T04:01:56;5.00;99.90
41924;DHT22;27613;48.116;11.656;2024-02-23T04:04:21;5.00;99.90
41924;DHT22;27613;48.116;11.656;2024-02-23T04:06:47;4.90;99.90
41924;DHT22;27613;48.116;11.656;2024-02-23T04:09:12;5.00;99.90
41924;DHT22;27613;48.116;11.656;2024-02-23T04:11:38;5.00;99.90
41924;DHT22;27613;48.116;11.656;2024-02-23T04:14:04;4.90;99.90
41924;DHT22;27613;48.116;11.656;2024-02-23T04:16:32;4.90;99.90
41924;DHT22;27613;48.116;11.656;2024-02-23T04:18:58;4.80;99.90
41924;DHT22;27613;48.116;11.656;2024-02-23T04:21:25;4.80;99.90
41924;DHT22;27613;48.116;11.656;2024-02-23T04:23:50;4.80;99.90
41924;DHT22;27613;48.116;11.656;2024-02-23T04:26:16;4.80;99.90
41924;DHT22;27613;48.116;11.656;2024-02-23T04:28:42;4.80;99.90
41924;DHT22;27613;48.116;11.656;2024-02-23T04:31:10;4.80;99.90
41924;DHT22;27613;48.116;11.656;2024-02-23T04:33:36;4.80;99.90
41924;DHT22;27613;48.116;11.656;2024-02-23T04:36:03;4.80;99.90
41924;DHT22;27613;48.116;11.656;2024-02-23T04:38:30;4.70;99.90
41924;DHT22;27613;48.116;11.656;2024-02-23T04:40:56;4.70;99.90
41924;DHT22;27613;48.116;11.656;2024-02-23T04:43:22;4.70;99.90
41924;DHT22;27613;48.116;11.656;2024-02-23T04:45:48;4.70;99.90
41924;DHT22;27613;48.116;11.656;2024-02-23T04:48:14;4.60;99.90
41924;DHT22;27613;48.116;11.656;2024-02-23T04:50:39;4.50;99.90
41924;DHT22;27613;48.116;11.656;2024-02-23T04:53:05;4.50;99.90
41924;DHT22;27613;48.116;11.656;2024-02-23T04:55:30;4.40;99.90
41924;DHT22;27613;48.116;11.656;2024-02-23T04:57:56;4.50;99.90
41924;DHT22;27613;48.116;11.656;2024-02-23T05:00:22;4.50;99.90
41924;DHT22;27613;48.116;11.656;2024-02-23T05:02:47;4.50;99.90
41924;DHT22;27613;48.116;11.656;2024-02-23T05:05:13;4.50;99.90
41924;DHT22;27613;48.116;11.656;2024-02-23T05:07:38;4.50;99.90
41924;DHT22;27613;48.116;11.656;2024-02-23T05:10:04;4.50;99.90
41924;DHT22;27613;48.116;11.656;2024-02-23T05:12:30;4.50;99.90
41924;DHT22;27613;48.116;11.656;2024-02-23T05:14:55;4.40;99.90
41924;DHT22;27613;48.116;11.656;2024-02-23T05:17:21;4.40;99.90
41924;DHT22;27613;48.116;11.656;2024-02-23T05:19:46;4.30;99.90
41924;DHT22;27613;48.116;11.656;2024-02-23T05:22:12;4.30;99.90
41924;DHT22;27613;48.116;11.656;2024-02-23T05:24:38;4.20;99.90
41924;DHT22;27613;48.116;11.656;2024-02-23T05:27:03;4.20;99.90
41924;DHT22;27613;48.116;11.656;2024-02-23T05:29:29;4.20;99.90
41924;DHT22;27613;48.116;11.656;2024-02-23T05:31:55;4.20;99.90
41924;DHT22;27613;48.116;11.656;2024-02-23T05:34:20;4.20;99.90
41924;DHT22;27613;48.116;11.656;2024-02-23T05:36:47;4.30;99.90
41924;DHT22;27613;48.116;11.656;2024-02-23T05:39:13;4.30;99.90
41924;DHT22;27613;48.116;11.656;2024-02-23T05:41:40;4.30;99.90
41924;DHT22;27613;48.116;11.656;2024-02-23T05:44:06;4.20;99.90
41924;DHT22;27613;48.116;11.656;2024-02-23T05:46:35;4.30;99.90
41924;DHT22;27613;48.116;11.656;2024-02-23T05:49:01;4.30;99.90
41924;DHT22;27613;48.116;11.656;2024-02-23T05:51:28;4.30;99.90
41924;DHT22;27613;48.116;11.656;2024-02-23T05:53:58;4.30;99.90
41924;DHT22;27613;48.116;11.656;2024-02-23T05:56:23;4.30;99.90
41924;DHT22;27613;48.116;11.656;2024-02-23T05:58:50;4.30;99.90
41924;DHT22;27613;48.116;11.656;2024-02-23T06:01:16;4.30;99.90
41924;DHT22;27613;48.116;11.656;2024-02-23T06:03:41;4.30;99.90
41924;DHT22;27613;48.116;11.656;2024-02-23T06:06:07;4.40;99.90
41924;DHT22;27613;48.116;11.656;2024-02-23T06:08:36;4.40;99.90
41924;DHT22;27613;48.116;11.656;2024-02-23T06:11:02;4.40;99.90
41924;DHT22;27613;48.116;11.656;2024-02-23T06:13:29;4.40;99.90
41924;DHT22;27613;48.116;11.656;2024-02-23T06:15:55;4.40;99.90
41924;DHT22;27613;48.116;11.656;2024-02-23T06:18:20;4.40;99.90
41924;DHT22;27613;48.116;11.656;2024-02-23T06:20:46;4.40;99.90
41924;DHT22;27613;48.116;11.656;2024-02-23T06:23:12;4.30;99.90
41924;DHT22;27613;48.116;11.656;2024-02-23T06:25:38;4.40;99.90
41924;DHT22;27613;48.116;11.656;2024-02-23T06:28:05;4.30;99.90
41924;DHT22;27613;48.116;11.656;2024-02-23T06:30:31;4.30;99.90
41924;DHT22;27613;48.116;11.656;2024-02-23T06:32:57;4.30;99.90
41924;DHT22;27613;48.116;11.656;2024-02-23T06:35:22;4.30;99.90
41924;DHT22;27613;48.116;11.656;2024-02-23T06:37:48;4.30;99.90
41924;DHT22;27613;48.116;11.656;2024-02-23T06:40:13;4.30;99.90
41924;DHT22;27613;48.116;11.656;2024-02-23T06:42:39;4.30;99.90
41924;DHT22;27613;48.116;11.656;2024-02-23T06:45:05;4.30;99.90
41924;DHT22;27613;48.116;11.656;2024-02-23T06:47:31;4.30;99.90
41924;DHT22;27613;48.116;11.656;2024-02-23T06:49:56;4.30;99.90
41924;DHT22;27613;48.116;11.656;2024-02-23T06:52:22;4.30;99.90
41924;DHT22;27613;48.116;11.656;2024-02-23T06:54:48;4.20;99.90
41924;DHT22;27613;48.116;11.656;2024-02-23T06:57:14;4.30;99.90
41924;DHT22;27613;48.116;11.656;2024-02-23T06:59:39;4.30;99.90
41924;DHT22;27613;48.116;11.656;2024-02-23T07:02:05;4.30;99.90
41924;DHT22;27613;48.116;11.656;2024-02-23T07:04:31;4.30;99.90
41924;DHT22;27613;48.116;11.656;2024-02-23T07:06:57;4.20;99.90
41924;DHT22;27613;48.116;11.656;2024-02-23T07:09:23;4.40;99.90
41924;DHT22;27613;48.116;11.656;2024-02-23T07:11:48;4.40;99.90
41924;DHT22;27613;48.116;11.656;2024-02-23T07:14:14;4.40;99.90
41924;DHT22;27613;48.116;11.656;2024-02-23T07:16:43;4.40;99.90
41924;DHT22;27613;48.116;11.656;2024-02-23T07:19:08;4.40;99.90
41924;DHT22;27613;48.116;11.656;2024-02-23T07:21:35;4.30;99.90
41924;DHT22;27613;48.116;11.656;2024-02-23T07:24:00;4.30;99.90
41924;DHT22;27613;48.116;11.656;2024-02-23T07:26:26;4.40;99.90
41924;DHT22;27613;48.116;11.656;2024-02-23T07:28:54;4.40;99.90
41924;DHT22;27613;48.116;11.656;2024-02-23T07:31:20;4.30;99.90
41924;DHT22;27613;48.116;11.656;2024-02-23T07:33:46;4.40;99.90
41924;DHT22;27613;48.116;11.656;2024-02-23T07:36:16;4.40;99.90
41924;DHT22;27613;48.116;11.656;2024-02-23T07:38:41;4.20;99.90
41924;DHT22;27613;48.116;11.656;2024-02-23T07:41:09;4.20;99.90
41924;DHT22;27613;48.116;11.656;2024-02-23T07:43:34;4.20;99.90
41924;DHT22;27613;48.116;11.656;2024-02-23T07:46:01;4.40;99.90
41924;DHT22;27613;48.116;11.656;2024-02-23T07:48:28;4.30;99.90
41924;DHT22;27613;48.116;11.656;2024-02-23T07:50:53;4.30;99.90
41924;DHT22;27613;48.116;11.656;2024-02-23T07:53:19;4.20;99.90
41924;DHT22;27613;48.116;11.656;2024-02-23T07:55:44;4.20;99.90
41924;DHT22;27613;48.116;11.656;2024-02-23T07:58:10;4.40;99.90
41924;DHT22;27613;48.116;11.656;2024-02-23T08:00:35;4.40;99.90
41924;DHT22;27613;48.116;11.656;2024-02-23T08:03:03;4.20;99.90
41924;DHT22;27613;48.116;11.656;2024-02-23T08:05:29;4.50;99.90
41924;DHT22;27613;48.116;11.656;2024-02-23T08:07:55;4.40;99.90
41924;DHT22;27613;48.116;11.656;2024-02-23T08:10:21;4.50;99.90
41924;DHT22;27613;48.116;11.656;2024-02-23T08:12:47;4.40;99.90
41924;DHT22;27613;48.116;11.656;2024-02-23T08:15:12;4.80;99.90
41924;DHT22;27613;48.116;11.656;2024-02-23T08:17:38;4.80;99.90
41924;DHT22;27613;48.116;11.656;2024-02-23T08:20:04;4.90;99.90
41924;DHT22;27613;48.116;11.656;2024-02-23T08:22:30;4.60;99.90
41924;DHT22;27613;48.116;11.656;2024-02-23T08:24:55;4.90;99.90
41924;DHT22;27613;48.116;11.656;2024-02-23T08:27:21;5.00;99.90
41924;DHT22;27613;48.116;11.656;2024-02-23T08:29:46;5.20;99.90
41924;DHT22;27613;48.116;11.656;2024-02-23T08:32:12;5.20;99.90
41924;DHT22;27613;48.116;11.656;2024-02-23T08:34:39;5.00;99.90
41924;DHT22;27613;48.116;11.656;2024-02-23T08:37:04;4.90;99.90
41924;DHT22;27613;48.116;11.656;2024-02-23T08:39:30;4.80;99.90
41924;DHT22;27613;48.116;11.656;2024-02-23T08:41:55;4.80;99.90
41924;DHT22;27613;48.116;11.656;2024-02-23T08:44:21;5.10;99.90
41924;DHT22;27613;48.116;11.656;2024-02-23T08:46:47;4.60;99.90
41924;DHT22;27613;48.116;11.656;2024-02-23T08:49:13;5.00;99.90
41924;DHT22;27613;48.116;11.656;2024-02-23T08:51:40;5.00;99.90
41924;DHT22;27613;48.116;11.656;2024-02-23T08:54:08;5.00;99.90
41924;DHT22;27613;48.116;11.656;2024-02-23T08:56:37;5.40;99.90
41924;DHT22;27613;48.116;11.656;2024-02-23T08:59:04;5.50;99.90
41924;DHT22;27613;48.116;11.656;2024-02-23T09:01:30;5.50;99.90
41924;DHT22;27613;48.116;11.656;2024-02-23T09:03:55;5.50;99.90
41924;DHT22;27613;48.116;11.656;2024-02-23T09:06:21;5.60;99.90
41924;DHT22;27613;48.116;11.656;2024-02-23T09:08:46;5.50;99.90
41924;DHT22;27613;48.116;11.656;2024-02-23T09:11:12;5.40;99.90
41924;DHT22;27613;48.116;11.656;2024-02-23T09:13:39;5.50;99.90
41924;DHT22;27613;48.116;11.656;2024-02-23T09:16:05;5.50;99.90
41924;DHT22;27613;48.116;11.656;2024-02-23T09:18:31;5.40;99.90
41924;DHT22;27613;48.116;11.656;2024-02-23T09:20:56;5.40;99.90
41924;DHT22;27613;48.116;11.656;2024-02-23T09:23:22;5.40;99.90
41924;DHT22;27613;48.116;11.656;2024-02-23T09:25:48;5.40;99.90
41924;DHT22;27613;48.116;11.656;2024-02-23T09:28:13;5.30;99.90
41924;DHT22;27613;48.116;11.656;2024-02-23T09:30:39;5.40;99.90
41924;DHT22;27613;48.116;11.656;2024-02-23T09:33:04;5.30;99.90
41924;DHT22;27613;48.116;11.656;2024-02-23T09:35:30;5.30;99.90
41924;DHT22;27613;48.116;11.656;2024-02-23T09:37:56;5.30;99.90
41924;DHT22;27613;48.116;11.656;2024-02-23T09:40:21;5.30;99.90
41924;DHT22;27613;48.116;11.656;2024-02-23T09:42:55;5.20;99.90
41924;DHT22;27613;48.116;11.656;2024-02-23T09:45:21;5.20;99.90
41924;DHT22;27613;48.116;11.656;2024-02-23T09:47:47;5.20;99.90
41924;DHT22;27613;48.116;11.656;2024-02-23T09:50:14;5.20;99.90
41924;DHT22;27613;48.116;11.656;2024-02-23T09:52:40;5.10;99.90
41924;DHT22;27613;48.116;11.656;2024-02-23T09:55:06;5.10;99.90
41924;DHT22;27613;48.116;11.656;2024-02-23T09:57:32;5.10;99.90
41924;DHT22;27613;48.116;11.656;2024-02-23T09:59:58;5.10;99.90
41924;DHT22;27613;48.116;11.656;2024-02-23T10:02:23;5.10;99.90
41924;DHT22;27613;48.116;11.656;2024-02-23T10:04:50;5.20;99.90
41924;DHT22;27613;48.116;11.656;2024-02-23T10:07:16;5.10;99.90
41924;DHT22;27613;48.116;11.656;2024-02-23T10:09:42;5.20;99.90
41924;DHT22;27613;48.116;11.656;2024-02-23T10:12:08;5.10;99.90
41924;DHT22;27613;48.116;11.656;2024-02-23T10:14:33;4.90;99.90
41924;DHT22;27613;48.116;11.656;2024-02-23T10:16:59;4.80;99.90
41924;DHT22;27613;48.116;11.656;2024-02-23T10:19:27;4.90;99.90
41924;DHT22;27613;48.116;11.656;2024-02-23T10:21:55;4.90;99.90
41924;DHT22;27613;48.116;11.656;2024-02-23T10:24:22;5.00;99.90
41924;DHT22;27613;48.116;11.656;2024-02-23T10:26:49;5.00;99.90
41924;DHT22;27613;48.116;11.656;2024-02-23T10:29:15;4.90;99.90
41924;DHT22;27613;48.116;11.656;2024-02-23T10:31:40;5.00;99.90
41924;DHT22;27613;48.116;11.656;2024-02-23T10:34:08;5.00;99.90
41924;DHT22;27613;48.116;11.656;2024-02-23T10:36:42;5.20;99.90
41924;DHT22;27613;48.116;11.656;2024-02-23T10:39:08;5.00;99.90
41924;DHT22;27613;48.116;11.656;2024-02-23T10:41:35;5.00;99.90
41924;DHT22;27613;48.116;11.656;2024-02-23T10:44:05;5.00;99.90
41924;DHT22;27613;48.116;11.656;2024-02-23T10:46:32;5.00;99.90
41924;DHT22;27613;48.116;11.656;2024-02-23T10:48:58;4.90;99.90
41924;DHT22;27613;48.116;11.656;2024-02-23T10:51:27;4.80;99.90
41924;DHT22;27613;48.116;11.656;2024-02-23T10:53:53;4.70;99.90
41924;DHT22;27613;48.116;11.656;2024-02-23T10:56:19;4.80;99.90
41924;DHT22;27613;48.116;11.656;2024-02-23T10:58:45;4.80;99.90
41924;DHT22;27613;48.116;11.656;2024-02-23T11:01:12;4.80;99.90
41924;DHT22;27613;48.116;11.656;2024-02-23T11:03:38;4.90;99.90
41924;DHT22;27613;48.116;11.656;2024-02-23T11:06:07;5.10;99.90
41924;DHT22;27613;48.116;11.656;2024-02-23T11:08:33;5.00;99.90
41924;DHT22;27613;48.116;11.656;2024-02-23T11:11:07;5.20;99.90
41924;DHT22;27613;48.116;11.656;2024-02-23T11:13:37;5.10;99.90
41924;DHT22;27613;48.116;11.656;2024-02-23T11:16:07;5.00;99.90
41924;DHT22;27613;48.116;11.656;2024-02-23T11:18:35;4.90;99.90
41924;DHT22;27613;48.116;11.656;2024-02-23T11:21:05;5.10;99.90
41924;DHT22;27613;48.116;11.656;2024-02-23T11:23:41;5.20;99.90
41924;DHT22;27613;48.116;11.656;2024-02-23T11:26:12;5.00;99.90
41924;DHT22;27613;48.116;11.656;2024-02-23T11:28:42;4.90;99.90
41924;DHT22;27613;48.116;11.656;2024-02-23T11:31:13;4.90;99.90
41924;DHT22;27613;48.116;11.656;2024-02-23T11:33:39;4.70;99.90
41924;DHT22;27613;48.116;11.656;2024-02-23T11:36:08;4.80;99.90
41924;DHT22;27613;48.116;11.656;2024-02-23T11:38:34;4.80;99.90
41924;DHT22;27613;48.116;11.656;2024-02-23T11:41:00;5.00;99.90
41924;DHT22;27613;48.116;11.656;2024-02-23T11:43:27;4.90;99.90
41924;DHT22;27613;48.116;11.656;2024-02-23T11:45:53;4.90;99.90
41924;DHT22;27613;48.116;11.656;2024-02-23T11:48:19;5.00;99.90
41924;DHT22;27613;48.116;11.656;2024-02-23T11:50:45;4.90;99.90
41924;DHT22;27613;48.116;11.656;2024-02-23T11:53:10;5.00;99.90
41924;DHT22;27613;48.116;11.656;2024-02-23T11:55:36;4.80;99.90
41924;DHT22;27613;48.116;11.656;2024-02-23T11:58:02;4.90;99.90
41924;DHT22;27613;48.116;11.656;2024-02-23T12:00:27;4.90;99.90
41924;DHT22;27613;48.116;11.656;2024-02-23T12:02:55;4.80;99.90
41924;DHT22;27613;48.116;11.656;2024-02-23T12:05:21;4.80;99.90
41924;DHT22;27613;48.116;11.656;2024-02-23T12:07:47;5.10;99.90
41924;DHT22;27613;48.116;11.656;2024-02-23T12:10:12;5.10;99.90
41924;DHT22;27613;48.116;11.656;2024-02-23T12:12:39;4.90;99.90
41924;DHT22;27613;48.116;11.656;2024-02-23T12:15:05;4.80;99.90
41924;DHT22;27613;48.116;11.656;2024-02-23T12:17:31;4.80;99.90
41924;DHT22;27613;48.116;11.656;2024-02-23T12:20:00;4.70;99.90
41924;DHT22;27613;48.116;11.656;2024-02-23T12:22:26;4.80;99.90
41924;DHT22;27613;48.116;11.656;2024-02-23T12:24:52;4.60;99.90
41924;DHT22;27613;48.116;11.656;2024-02-23T12:27:18;4.70;99.90
41924;DHT22;27613;48.116;11.656;2024-02-23T12:29:54;4.80;99.90
41924;DHT22;27613;48.116;11.656;2024-02-23T12:32:21;4.80;99.90
41924;DHT22;27613;48.116;11.656;2024-02-23T12:34:50;4.90;99.90
41924;DHT22;27613;48.116;11.656;2024-02-23T12:37:18;4.80;99.90
41924;DHT22;27613;48.116;11.656;2024-02-23T12:39:44;4.70;99.90
41924;DHT22;27613;48.116;11.656;2024-02-23T12:42:10;4.80;99.90
41924;DHT22;27613;48.116;11.656;2024-02-23T12:44:35;4.80;99.90
41924;DHT22;27613;48.116;11.656;2024-02-23T12:47:01;4.60;99.90
41924;DHT22;27613;48.116;11.656;2024-02-23T12:49:27;4.80;99.90
41924;DHT22;27613;48.116;11.656;2024-02-23T12:51:52;4.90;99.90
41924;DHT22;27613;48.116;11.656;2024-02-23T12:54:18;4.90;99.90
41924;DHT22;27613;48.116;11.656;2024-02-23T12:56:43;4.50;99.90
41924;DHT22;27613;48.116;11.656;2024-02-23T12:59:09;4.70;99.90
41924;DHT22;27613;48.116;11.656;2024-02-23T13:01:35;4.70;99.90
41924;DHT22;27613;48.116;11.656;2024-02-23T13:04:03;4.90;99.90
41924;DHT22;27613;48.116;11.656;2024-02-23T13:06:28;4.80;99.90
41924;DHT22;27613;48.116;11.656;2024-02-23T13:08:54;4.90;99.90
41924;DHT22;27613;48.116;11.656;2024-02-23T13:11:20;4.80;99.90
41924;DHT22;27613;48.116;11.656;2024-02-23T13:13:45;4.70;99.90
41924;DHT22;27613;48.116;11.656;2024-02-23T13:16:11;4.90;99.90
41924;DHT22;27613;48.116;11.656;2024-02-23T13:18:37;4.90;99.90
41924;DHT22;27613;48.116;11.656;2024-02-23T13:21:03;4.80;99.90
41924;DHT22;27613;48.116;11.656;2024-02-23T13:23:29;4.80;99.90
41924;DHT22;27613;48.116;11.656;2024-02-23T13:25:54;4.80;99.90
41924;DHT22;27613;48.116;11.656;2024-02-23T13:28:20;4.60;99.90
41924;DHT22;27613;48.116;11.656;2024-02-23T13:30:46;4.70;99.90
41924;DHT22;27613;48.116;11.656;2024-02-23T13:33:11;4.70;99.90
41924;DHT22;27613;48.116;11.656;2024-02-23T13:35:37;4.80;99.90
41924;DHT22;27613;48.116;11.656;2024-02-23T13:38:02;4.60;99.90
41924;DHT22;27613;48.116;11.656;2024-02-23T13:40:31;4.50;99.90
41924;DHT22;27613;48.116;11.656;2024-02-23T13:42:57;4.50;99.90
41924;DHT22;27613;48.116;11.656;2024-02-23T13:45:22;4.60;99.90
41924;DHT22;27613;48.116;11.656;2024-02-23T13:47:57;4.60;99.90
41924;DHT22;27613;48.116;11.656;2024-02-23T13:50:24;4.60;99.90
41924;DHT22;27613;48.116;11.656;2024-02-23T13:52:49;4.70;99.90
41924;DHT22;27613;48.116;11.656;2024-02-23T13:55:15;4.80;99.90
41924;DHT22;27613;48.116;11.656;2024-02-23T13:57:41;4.70;99.90
41924;DHT22;27613;48.116;11.656;2024-02-23T14:00:06;4.80;99.90
41924;DHT22;27613;48.116;11.656;2024-02-23T14:02:38;4.60;99.90
41924;DHT22;27613;48.116;11.656;2024-02-23T14:05:06;4.60;99.90
41924;DHT22;27613;48.116;11.656;2024-02-23T14:07:32;4.70;99.90
41924;DHT22;27613;48.116;11.656;2024-02-23T14:09:58;4.60;99.90
41924;DHT22;27613;48.116;11.656;2024-02-23T14:12:24;4.70;99.90
41924;DHT22;27613;48.116;11.656;2024-02-23T14:14:50;4.70;99.90
41924;DHT22;27613;48.116;11.656;2024-02-23T14:17:15;4.50;99.90
41924;DHT22;27613;48.116;11.656;2024-02-23T14:19:41;4.60;99.90
41924;DHT22;27613;48.116;11.656;2024-02-23T14:22:07;4.70;99.90
41924;DHT22;27613;48.116;11.656;2024-02-23T14:24:33;4.60;99.90
41924;DHT22;27613;48.116;11.656;2024-02-23T14:26:58;4.50;99.90
41924;DHT22;27613;48.116;11.656;2024-02-23T14:29:24;4.50;99.90
41924;DHT22;27613;48.116;11.656;2024-02-23T14:31:49;4.50;99.90
41924;DHT22;27613;48.116;11.656;2024-02-23T14:34:15;4.50;99.90
41924;DHT22;27613;48.116;11.656;2024-02-23T14:36:40;4.50;99.90
41924;DHT22;27613;48.116;11.656;2024-02-23T14:39:06;4.30;99.90
41924;DHT22;27613;48.116;11.656;2024-02-23T14:41:32;4.20;99.90
41924;DHT22;27613;48.116;11.656;2024-02-23T14:43:57;4.30;99.90
41924;DHT22;27613;48.116;11.656;2024-02-23T14:46:23;4.30;99.90
41924;DHT22;27613;48.116;11.656;2024-02-23T14:48:48;4.20;99.90
41924;DHT22;27613;48.116;11.656;2024-02-23T14:51:17;4.20;99.90
41924;DHT22;27613;48.116;11.656;2024-02-23T14:53:42;4.10;99.90
41924;DHT22;27613;48.116;11.656;2024-02-23T14:56:08;4.10;99.90
41924;DHT22;27613;48.116;11.656;2024-02-23T14:58:33;4.10;99.90
41924;DHT22;27613;48.116;11.656;2024-02-23T15:00:59;4.00;99.90
41924;DHT22;27613;48.116;11.656;2024-02-23T15:03:25;3.90;99.90
41924;DHT22;27613;48.116;11.656;2024-02-23T15:05:51;4.00;99.90
41924;DHT22;27613;48.116;11.656;2024-02-23T15:08:16;3.90;99.90
41924;DHT22;27613;48.116;11.656;2024-02-23T15:10:42;3.90;99.90
41924;DHT22;27613;48.116;11.656;2024-02-23T15:13:08;3.90;99.90
41924;DHT22;27613;48.116;11.656;2024-02-23T15:15:34;3.90;99.90
41924;DHT22;27613;48.116;11.656;2024-02-23T15:18:01;4.00;99.90
41924;DHT22;27613;48.116;11.656;2024-02-23T15:20:27;4.00;99.90
41924;DHT22;27613;48.116;11.656;2024-02-23T15:22:52;4.00;99.90